createdAt,value
2023-12-11T00:00:39.629Z,22.80
2023-12-11T00:03:09.374Z,24.90
2023-12-11T00:05:39.998Z,23.70
2023-12-11T00:08:09.871Z,23.90
2023-12-11T00:10:37.377Z,23.80
2023-12-11T00:13:07.668Z,25.10
2023-12-11T00:15:35.567Z,24.40
2023-12-11T00:18:03.486Z,24.00
2023-12-11T00:20:31.178Z,24.50
2023-12-11T00:22:58.964Z,24.10
2023-12-11T00:25:28.375Z,24.00
2023-12-11T00:27:56.128Z,24.80
2023-12-11T00:30:24.077Z,24.00
2023-12-11T00:32:53.116Z,22.20
2023-12-11T00:35:20.615Z,21.90
2023-12-11T00:37:48.285Z,22.70
2023-12-11T00:40:16.007Z,23.80
2023-12-11T00:44:19.977Z,23.30
2023-12-11T00:46:47.586Z,26.20
2023-12-11T00:49:15.132Z,26.60
2023-12-11T00:51:44.202Z,24.10
2023-12-11T00:54:12.155Z,23.40
2023-12-11T00:56:39.940Z,26.00
2023-12-11T00:59:07.618Z,21.60
2023-12-11T01:01:35.173Z,21.00
2023-12-11T01:04:04.835Z,20.80
2023-12-11T01:06:32.500Z,22.00
2023-12-11T01:09:00.094Z,23.50
2023-12-11T01:11:27.683Z,20.90
2023-12-11T01:13:55.216Z,23.10
2023-12-11T01:16:23.893Z,22.70
2023-12-11T01:18:52.196Z,21.70
2023-12-11T01:21:19.825Z,20.90
2023-12-11T01:23:49.443Z,21.20
2023-12-11T01:26:16.967Z,22.60
2023-12-11T01:28:44.632Z,21.40
2023-12-11T01:31:12.285Z,21.30
2023-12-11T01:33:39.941Z,20.60
2023-12-11T01:36:07.803Z,21.90
2023-12-11T01:38:35.319Z,20.80
2023-12-11T01:41:03.624Z,22.00
2023-12-11T01:43:31.191Z,22.10
2023-12-11T01:46:06.633Z,22.60
2023-12-11T01:48:35.441Z,20.60
2023-12-11T01:51:04.126Z,21.20
2023-12-11T01:53:31.730Z,20.30
2023-12-11T01:56:01.085Z,21.40
2023-12-11T01:58:30.939Z,19.70
2023-12-11T02:00:58.993Z,21.90
2023-12-11T02:03:26.708Z,20.30
2023-12-11T02:05:54.333Z,20.80
2023-12-11T02:08:21.877Z,22.30
2023-12-11T02:10:49.958Z,21.50
2023-12-11T02:13:17.652Z,20.10
2023-12-11T02:15:46.151Z,20.40
2023-12-11T02:18:15.824Z,20.20
2023-12-11T02:20:44.235Z,18.00
2023-12-11T02:23:19.464Z,21.00
2023-12-11T02:25:47.641Z,20.50
2023-12-11T02:28:16.096Z,20.00
2023-12-11T02:30:51.109Z,21.40
2023-12-11T02:33:19.279Z,21.00
2023-12-11T02:35:46.937Z,20.10
2023-12-11T02:38:14.445Z,19.00
2023-12-11T02:40:42.252Z,19.10
2023-12-11T02:43:10.170Z,18.60
2023-12-11T02:45:37.729Z,20.30
2023-12-11T02:48:06.645Z,18.90
2023-12-11T02:50:34.389Z,19.40
2023-12-11T02:53:03.034Z,18.90
2023-12-11T02:55:30.741Z,19.40
2023-12-11T02:57:59.586Z,18.40
2023-12-11T03:00:31.996Z,20.30
2023-12-11T03:02:59.826Z,20.10
2023-12-11T03:05:27.498Z,18.40
2023-12-11T03:07:55.024Z,19.70
2023-12-11T03:10:24.438Z,18.30
2023-12-11T03:12:53.706Z,17.40
2023-12-11T03:15:21.350Z,17.20
2023-12-11T03:17:49.251Z,18.80
2023-12-11T03:20:16.806Z,17.90
2023-12-11T03:22:44.582Z,20.10
2023-12-11T03:25:12.346Z,18.70
2023-12-11T03:27:40.003Z,21.60
2023-12-11T03:30:08.233Z,19.50
2023-12-11T03:32:36.077Z,20.70
2023-12-11T03:35:04.648Z,19.00
2023-12-11T03:37:33.936Z,19.10
2023-12-11T03:40:03.261Z,20.10
2023-12-11T03:42:30.912Z,20.70
2023-12-11T03:44:59.792Z,22.60
2023-12-11T03:47:27.584Z,21.50
2023-12-11T03:49:55.955Z,21.00
2023-12-11T03:52:23.551Z,22.40
2023-12-11T03:54:51.211Z,21.90
2023-12-11T03:57:18.966Z,20.50
2023-12-11T03:59:46.554Z,22.20
2023-12-11T04:02:14.254Z,24.90
2023-12-11T04:04:42.241Z,23.60
2023-12-11T04:07:10.128Z,22.90
2023-12-11T04:09:37.737Z,25.40
2023-12-11T04:12:07.817Z,24.40
2023-12-11T04:14:36.128Z,25.00
2023-12-11T04:17:03.794Z,25.30
2023-12-11T04:19:31.420Z,30.50
2023-12-11T04:21:59.679Z,29.10
2023-12-11T04:24:27.344Z,30.10
2023-12-11T04:26:54.948Z,30.80
2023-12-11T04:29:22.640Z,30.80
2023-12-11T04:31:50.158Z,33.20
2023-12-11T04:34:17.744Z,28.90
2023-12-11T04:36:45.608Z,29.30
2023-12-11T04:39:14.098Z,31.20
2023-12-11T04:41:41.890Z,34.60
2023-12-11T04:44:09.439Z,32.10
2023-12-11T04:46:39.331Z,29.40
2023-12-11T04:49:07.058Z,27.90
2023-12-11T04:51:34.769Z,29.00
2023-12-11T04:54:03.195Z,35.40
2023-12-11T04:56:31.940Z,31.00
2023-12-11T04:58:59.596Z,32.40
2023-12-11T05:01:28.227Z,32.90
2023-12-11T05:03:55.851Z,28.40
2023-12-11T05:06:23.339Z,27.70
2023-12-11T05:08:53.001Z,25.00
2023-12-11T05:11:22.454Z,23.10
2023-12-11T05:13:50.143Z,21.40
2023-12-11T05:16:17.981Z,24.10
2023-12-11T05:18:45.605Z,21.70
2023-12-11T05:21:14.888Z,26.60
2023-12-11T05:23:43.176Z,23.70
2023-12-11T05:26:10.767Z,27.90
2023-12-11T05:28:38.306Z,24.60
2023-12-11T05:31:07.576Z,30.90
2023-12-11T05:33:35.427Z,31.90
2023-12-11T05:36:03.309Z,22.00
2023-12-11T05:38:30.953Z,22.40
2023-12-11T05:41:01.179Z,21.00
2023-12-11T05:43:28.746Z,22.10
2023-12-11T05:45:56.353Z,20.50
2023-12-11T05:48:24.317Z,21.60
2023-12-11T05:50:53.071Z,21.70
2023-12-11T05:53:21.810Z,23.30
2023-12-11T05:55:49.362Z,19.90
2023-12-11T05:58:17.573Z,21.00
2023-12-11T06:00:46.436Z,21.80
2023-12-11T06:03:15.184Z,22.30
2023-12-11T06:05:42.923Z,23.50
2023-12-11T06:08:11.955Z,22.70
2023-12-11T06:10:39.545Z,22.50
2023-12-11T06:13:08.344Z,19.80
2023-12-11T06:15:35.957Z,20.10
2023-12-11T06:18:03.837Z,18.80
2023-12-11T06:20:31.506Z,20.40
2023-12-11T06:22:59.348Z,22.30
2023-12-11T06:25:26.916Z,20.50
2023-12-11T06:27:54.585Z,23.40
2023-12-11T06:30:23.625Z,23.30
2023-12-11T06:32:51.261Z,24.90
2023-12-11T06:35:20.498Z,22.90
2023-12-11T06:37:48.096Z,23.00
2023-12-11T06:40:15.735Z,21.80
2023-12-11T06:42:43.328Z,23.80
2023-12-11T06:45:12.076Z,24.80
2023-12-11T06:47:39.715Z,22.60
2023-12-11T06:50:07.716Z,23.60
2023-12-11T06:52:35.401Z,21.50
2023-12-11T06:55:04.042Z,23.00
2023-12-11T06:57:32.126Z,22.90
2023-12-11T06:59:59.826Z,21.70
2023-12-11T07:02:28.301Z,22.90
2023-12-11T07:04:56.220Z,21.30
2023-12-11T07:07:23.979Z,24.30
2023-12-11T07:09:51.673Z,21.90
2023-12-11T07:12:19.427Z,22.80
2023-12-11T07:14:48.256Z,22.70
2023-12-11T07:17:15.819Z,24.30
2023-12-11T07:19:43.829Z,23.20
2023-12-11T07:22:11.473Z,23.40
2023-12-11T07:24:39.090Z,23.40
2023-12-11T07:27:07.399Z,22.40
2023-12-11T07:29:34.929Z,22.30
2023-12-11T07:32:02.524Z,23.60
2023-12-11T07:34:31.216Z,25.10
2023-12-11T07:36:59.342Z,24.30
2023-12-11T07:39:27.367Z,22.70
2023-12-11T07:41:56.002Z,26.20
2023-12-11T07:44:26.109Z,24.30
2023-12-11T07:46:55.098Z,26.00
2023-12-11T07:49:23.627Z,24.00
2023-12-11T07:51:53.120Z,25.90
2023-12-11T07:54:23.785Z,24.90
2023-12-11T07:56:59.126Z,28.10
2023-12-11T07:59:26.833Z,28.20
2023-12-11T08:01:54.570Z,26.30
2023-12-11T08:04:25.107Z,23.00
2023-12-11T08:06:53.148Z,24.10
2023-12-11T08:09:21.503Z,23.90
2023-12-11T08:11:50.762Z,26.30
2023-12-11T08:14:18.655Z,25.20
2023-12-11T08:16:46.596Z,25.30
2023-12-11T08:19:18.589Z,26.80
2023-12-11T08:21:48.720Z,27.10
2023-12-11T08:24:17.728Z,26.70
2023-12-11T08:26:45.478Z,27.70
2023-12-11T08:29:13.171Z,28.50
2023-12-11T08:31:42.072Z,26.60
2023-12-11T08:34:10.087Z,29.20
2023-12-11T08:36:40.701Z,30.40
2023-12-11T08:39:09.520Z,29.90
2023-12-11T08:41:38.475Z,27.30
2023-12-11T08:44:10.138Z,26.50
2023-12-11T08:46:41.687Z,26.90
2023-12-11T08:49:11.453Z,26.40
2023-12-11T08:51:39.840Z,26.30
2023-12-11T08:54:07.644Z,26.30
2023-12-11T08:56:35.197Z,28.80
2023-12-11T08:59:03.004Z,31.00
2023-12-11T09:01:32.376Z,31.60
2023-12-11T09:04:03.454Z,32.60
2023-12-11T09:06:31.038Z,35.80
2023-12-11T09:08:58.767Z,31.50
2023-12-11T09:11:29.622Z,31.50
2023-12-11T09:14:00.207Z,29.30
2023-12-11T09:16:28.283Z,34.40
2023-12-11T09:18:56.303Z,40.20
2023-12-11T09:21:24.056Z,40.50
2023-12-11T09:23:51.934Z,38.20
2023-12-11T09:26:20.203Z,39.10
2023-12-11T09:28:52.207Z,41.60
2023-12-11T09:31:24.880Z,60.30
2023-12-11T09:33:53.107Z,41.20
2023-12-11T09:36:26.407Z,42.90
2023-12-11T09:38:57.459Z,42.00
2023-12-11T09:41:30.134Z,42.80
2023-12-11T09:43:58.870Z,39.40
2023-12-11T09:46:26.505Z,39.90
2023-12-11T09:48:54.219Z,34.80
2023-12-11T09:51:22.498Z,34.60
2023-12-11T09:53:50.133Z,35.70
2023-12-11T09:56:17.719Z,38.50
2023-12-11T09:58:45.470Z,37.00
2023-12-11T10:01:13.672Z,35.20
2023-12-11T10:03:41.441Z,35.50
2023-12-11T10:06:09.339Z,34.30
2023-12-11T10:08:44.062Z,38.90
2023-12-11T10:11:13.035Z,48.40
2023-12-11T10:13:41.138Z,36.70
2023-12-11T10:16:32.513Z,32.90
2023-12-11T10:19:02.027Z,34.30
2023-12-11T10:21:40.373Z,32.30
2023-12-11T10:24:17.742Z,34.50
2023-12-11T10:26:46.896Z,32.40
2023-12-11T10:29:20.104Z,31.70
2023-12-11T10:31:47.806Z,32.70
2023-12-11T10:34:16.728Z,32.60
2023-12-11T10:36:51.726Z,35.40
2023-12-11T10:39:24.588Z,34.40
2023-12-11T10:41:53.719Z,31.20
2023-12-11T10:44:42.773Z,32.00
2023-12-11T10:49:42.733Z,28.20
2023-12-11T10:52:10.652Z,30.20
2023-12-11T10:54:39.486Z,29.90
2023-12-11T10:59:38.522Z,31.20
2023-12-11T11:02:06.383Z,33.60
2023-12-11T11:04:35.863Z,34.20
2023-12-11T11:07:03.596Z,31.60
2023-12-11T11:09:34.847Z,33.70
2023-12-11T11:12:09.546Z,31.60
2023-12-11T11:14:44.195Z,32.40
2023-12-11T11:17:12.724Z,34.50
2023-12-11T11:20:09.737Z,36.20
2023-12-11T11:22:41.071Z,35.30
2023-12-11T11:25:34.715Z,38.40
2023-12-11T11:28:02.607Z,32.50
2023-12-11T11:30:42.811Z,33.70
2023-12-11T11:33:10.723Z,32.90
2023-12-11T11:35:53.990Z,33.10
2023-12-11T11:38:22.936Z,34.30
2023-12-11T11:40:52.812Z,34.60
2023-12-11T11:43:20.642Z,55.40
2023-12-11T11:45:54.876Z,41.20
2023-12-11T11:48:22.576Z,36.10
2023-12-11T11:50:52.256Z,36.10
2023-12-11T11:53:20.766Z,34.90
2023-12-11T11:55:48.610Z,29.40
2023-12-11T11:58:16.608Z,28.20
2023-12-11T12:00:44.756Z,31.50
2023-12-11T12:03:13.276Z,34.50
2023-12-11T12:05:57.124Z,34.70
2023-12-11T12:08:25.957Z,35.80
2023-12-11T12:10:57.569Z,34.40
2023-12-11T12:13:25.224Z,34.70
2023-12-11T12:15:54.292Z,35.50
2023-12-11T12:18:22.216Z,36.90
2023-12-11T12:21:05.644Z,37.00
2023-12-11T12:23:36.372Z,39.20
2023-12-11T12:26:04.366Z,39.40
2023-12-11T12:28:32.142Z,35.70
2023-12-11T12:30:59.884Z,32.50
2023-12-11T12:33:27.675Z,33.50
2023-12-11T12:35:55.416Z,31.80
2023-12-11T12:38:23.030Z,33.60
2023-12-11T12:40:52.970Z,36.60
2023-12-11T12:43:20.899Z,37.90
2023-12-11T12:45:49.334Z,34.30
2023-12-11T12:48:17.026Z,30.90
2023-12-11T12:50:44.660Z,33.50
2023-12-11T12:53:14.503Z,33.90
2023-12-11T12:55:42.126Z,35.40
2023-12-11T12:58:15.721Z,34.20
2023-12-11T13:02:34.474Z,35.10
2023-12-11T13:05:02.283Z,31.80
2023-12-11T13:07:30.400Z,32.80
2023-12-11T13:09:58.337Z,33.10
2023-12-11T13:12:29.769Z,32.30
2023-12-11T13:14:57.634Z,31.00
2023-12-11T13:17:25.351Z,31.80
2023-12-11T13:19:57.418Z,35.40
2023-12-11T13:22:37.562Z,32.70
2023-12-11T13:25:07.453Z,30.40
2023-12-11T13:34:12.773Z,38.20
2023-12-11T13:36:40.549Z,73.70
2023-12-11T13:39:09.766Z,37.60
2023-12-11T13:41:40.233Z,29.60
2023-12-11T13:44:07.895Z,29.50
2023-12-11T13:46:38.414Z,34.00
2023-12-11T13:49:06.241Z,34.50
2023-12-11T13:51:33.973Z,32.80
2023-12-11T13:54:01.737Z,36.80
2023-12-11T13:56:29.730Z,37.20
2023-12-11T13:58:57.517Z,36.90
2023-12-11T14:01:25.465Z,36.20
2023-12-11T14:03:54.061Z,38.30
2023-12-11T14:06:21.704Z,37.10
2023-12-11T14:08:49.341Z,40.30
2023-12-11T14:11:19.243Z,34.60
2023-12-11T14:13:47.263Z,31.40
2023-12-11T14:16:14.954Z,34.30
2023-12-11T14:18:42.902Z,36.90
2023-12-11T14:21:11.077Z,36.20
2023-12-11T14:23:39.713Z,40.90
2023-12-11T14:26:07.266Z,35.30
2023-12-11T14:28:34.866Z,34.10
2023-12-11T14:31:04.303Z,32.50
2023-12-11T14:33:32.152Z,32.20
2023-12-11T14:35:59.743Z,31.70
2023-12-11T14:38:28.129Z,29.30
2023-12-11T14:40:55.707Z,30.00
2023-12-11T14:43:24.442Z,31.20
2023-12-11T14:45:52.103Z,32.00
2023-12-11T14:48:19.765Z,28.70
2023-12-11T14:50:48.078Z,30.60
2023-12-11T14:53:15.874Z,33.20
2023-12-11T14:55:44.423Z,32.10
2023-12-11T14:58:12.238Z,33.10
2023-12-11T15:00:39.972Z,32.60
2023-12-11T15:03:07.564Z,29.50
2023-12-11T15:05:35.436Z,31.10
2023-12-11T15:08:06.424Z,32.20
2023-12-11T15:10:38.458Z,33.80
2023-12-11T15:13:07.780Z,37.00
2023-12-11T15:15:36.463Z,34.60
2023-12-11T15:18:04.277Z,34.10
2023-12-11T15:20:32.393Z,36.90
2023-12-11T15:23:00.620Z,35.00
2023-12-11T15:25:29.035Z,32.30
2023-12-11T15:27:57.413Z,33.20
2023-12-11T15:30:26.058Z,32.30
2023-12-11T15:32:53.714Z,28.90
2023-12-11T15:35:23.579Z,30.50
2023-12-11T15:37:52.185Z,29.80
2023-12-11T15:40:20.953Z,42.30
2023-12-11T15:42:50.690Z,39.10
2023-12-11T15:45:18.388Z,41.80
2023-12-11T15:48:00.762Z,40.00
2023-12-11T15:50:31.783Z,37.40
2023-12-11T15:53:00.155Z,36.40
2023-12-11T15:55:27.731Z,39.10
2023-12-11T15:57:55.465Z,37.00
2023-12-11T16:00:23.745Z,44.20
2023-12-11T16:02:53.935Z,43.00
2023-12-11T16:05:22.282Z,40.40
2023-12-11T16:07:50.025Z,33.80
2023-12-11T16:10:17.657Z,31.50
2023-12-11T16:12:45.544Z,32.90
2023-12-11T16:15:13.668Z,29.40
2023-12-11T16:17:41.269Z,29.50
2023-12-11T16:20:09.540Z,29.50
2023-12-11T16:22:38.315Z,32.90
2023-12-11T16:25:06.478Z,32.60
2023-12-11T16:27:34.869Z,32.70
2023-12-11T16:30:02.669Z,32.20
2023-12-11T16:32:30.819Z,36.20
2023-12-11T16:35:01.159Z,35.60
2023-12-11T16:37:28.900Z,35.40
2023-12-11T16:39:58.030Z,32.90
2023-12-11T16:42:28.643Z,35.20
2023-12-11T16:44:59.250Z,35.80
2023-12-11T16:47:30.599Z,33.80
2023-12-11T16:50:06.721Z,33.60
2023-12-11T16:52:39.861Z,34.10
2023-12-11T16:55:14.850Z,33.40
2023-12-11T16:57:44.024Z,32.60
2023-12-11T17:00:12.680Z,30.50
2023-12-11T17:02:41.511Z,34.70
2023-12-11T17:05:12.432Z,33.90
2023-12-11T17:07:40.673Z,33.50
2023-12-11T17:10:09.859Z,57.30
2023-12-11T17:12:40.526Z,64.80
2023-12-11T17:15:09.833Z,60.70
2023-12-11T17:17:38.019Z,56.90
2023-12-11T17:20:06.432Z,63.20
2023-12-11T17:22:40.321Z,64.50
2023-12-11T17:25:15.025Z,60.30
2023-12-11T17:27:44.999Z,65.40
2023-12-11T17:30:13.052Z,60.20
2023-12-11T17:32:40.964Z,59.00
2023-12-11T17:35:08.736Z,59.70
2023-12-11T17:37:36.877Z,49.70
2023-12-11T17:40:08.198Z,43.70
2023-12-11T17:43:01.934Z,39.70
2023-12-11T17:45:29.562Z,40.40
2023-12-11T17:47:57.268Z,36.20
2023-12-11T17:50:28.659Z,38.80
2023-12-11T17:52:56.331Z,36.30
2023-12-11T17:55:24.556Z,39.40
2023-12-11T17:57:55.386Z,40.70
2023-12-11T18:00:23.261Z,43.30
2023-12-11T18:02:51.308Z,38.30
2023-12-11T18:05:22.068Z,36.70
2023-12-11T18:07:51.255Z,37.50
2023-12-11T18:10:20.805Z,41.70
2023-12-11T18:12:54.503Z,41.20
2023-12-11T18:15:23.035Z,38.20
2023-12-11T18:17:55.160Z,38.30
2023-12-11T18:20:26.396Z,36.60
2023-12-11T18:22:54.146Z,37.90
2023-12-11T18:25:25.122Z,40.30
2023-12-11T18:27:56.686Z,38.90
2023-12-11T18:30:26.242Z,41.60
2023-12-11T18:32:57.194Z,38.80
2023-12-11T18:35:26.386Z,35.00
2023-12-11T18:37:54.468Z,36.50
2023-12-11T18:40:23.155Z,37.90
2023-12-11T18:42:50.843Z,43.00
2023-12-11T18:45:19.895Z,40.10
2023-12-11T18:47:49.016Z,44.40
2023-12-11T18:50:26.886Z,44.40
2023-12-11T18:52:58.074Z,41.20
2023-12-11T18:55:32.585Z,38.90
2023-12-11T18:58:00.294Z,36.00
2023-12-11T19:00:32.218Z,40.10
2023-12-11T19:03:02.092Z,41.20
2023-12-11T19:05:30.021Z,41.00
2023-12-11T19:07:57.794Z,45.10
2023-12-11T19:10:27.658Z,45.90
2023-12-11T19:12:57.041Z,42.00
2023-12-11T19:15:28.367Z,38.20
2023-12-11T19:22:04.149Z,53.50
2023-12-11T19:24:33.022Z,49.20
2023-12-11T19:27:03.841Z,44.80
2023-12-11T19:29:31.791Z,41.30
2023-12-11T19:32:00.061Z,42.00
2023-12-11T19:34:27.759Z,45.40
2023-12-11T19:36:55.459Z,42.70
2023-12-11T19:39:23.038Z,43.70
2023-12-11T19:41:54.401Z,47.30
2023-12-11T19:44:23.886Z,46.80
2023-12-11T19:46:52.547Z,39.90
2023-12-11T19:49:20.434Z,35.00
2023-12-11T19:51:48.147Z,38.90
2023-12-11T19:54:15.748Z,40.10
2023-12-11T19:56:45.164Z,40.90
2023-12-11T19:59:17.719Z,45.50
2023-12-11T20:01:45.418Z,45.90
2023-12-11T20:04:13.193Z,49.80
2023-12-11T20:06:42.487Z,45.30
2023-12-11T20:09:10.096Z,42.60
2023-12-11T20:11:37.830Z,44.60
2023-12-11T20:14:05.450Z,44.00
2023-12-11T20:16:33.308Z,37.90
2023-12-11T20:19:01.399Z,39.20
2023-12-11T20:21:29.432Z,37.40
2023-12-11T20:23:57.074Z,35.10
2023-12-11T20:26:26.578Z,31.40
2023-12-11T20:28:54.133Z,32.90
2023-12-11T20:31:21.744Z,31.90
2023-12-11T20:33:52.091Z,32.10
2023-12-11T20:36:20.285Z,34.60
2023-12-11T20:38:50.613Z,34.60
2023-12-11T20:41:22.185Z,34.60
2023-12-11T20:43:52.979Z,35.00
2023-12-11T20:46:25.320Z,38.90
2023-12-11T20:48:56.045Z,43.40
2023-12-11T20:51:26.013Z,44.80
2023-12-11T20:53:54.099Z,50.60
2023-12-11T20:56:30.853Z,48.90
2023-12-11T20:59:01.973Z,44.10
2023-12-11T21:01:34.659Z,42.20
2023-12-11T21:04:05.919Z,42.50
2023-12-11T21:06:36.789Z,41.80
2023-12-11T21:09:11.996Z,42.10
2023-12-11T21:11:39.721Z,37.50
2023-12-11T21:14:07.393Z,37.50
2023-12-11T21:16:37.782Z,38.90
2023-12-11T21:19:06.541Z,39.30
2023-12-11T21:21:40.331Z,36.90
2023-12-11T21:24:10.123Z,35.20
2023-12-11T21:26:37.993Z,37.10
2023-12-11T21:29:05.821Z,34.60
2023-12-11T21:31:36.671Z,43.50
2023-12-11T21:34:06.779Z,42.40
2023-12-11T21:36:34.771Z,38.80
2023-12-11T21:39:06.673Z,37.90
2023-12-11T21:41:34.890Z,38.90
2023-12-11T21:44:02.713Z,39.70
2023-12-11T21:46:33.466Z,55.10
2023-12-11T21:49:02.753Z,48.80
2023-12-11T21:51:31.091Z,43.70
2023-12-11T21:53:58.900Z,42.10
2023-12-11T21:56:27.128Z,38.10
2023-12-11T21:58:54.903Z,36.70
2023-12-11T22:01:22.532Z,36.60
2023-12-11T22:03:50.321Z,34.10
2023-12-11T22:06:19.268Z,36.80
2023-12-11T22:08:47.144Z,38.40
2023-12-11T22:11:15.401Z,39.90
2023-12-11T22:13:43.253Z,33.70
2023-12-11T22:16:10.819Z,34.80
2023-12-11T22:18:38.831Z,35.40
2023-12-11T22:21:06.678Z,34.90
2023-12-11T22:23:34.906Z,37.00
2023-12-11T22:26:02.533Z,37.80
2023-12-11T22:28:30.168Z,38.10
2023-12-11T22:30:57.751Z,39.00
2023-12-11T22:33:25.269Z,38.50
2023-12-11T22:35:52.999Z,37.50
2023-12-11T22:38:20.890Z,36.70
2023-12-11T22:40:49.123Z,36.30
2023-12-11T22:43:16.932Z,35.20
2023-12-11T22:45:44.531Z,40.60
2023-12-11T22:48:15.000Z,36.20
2023-12-11T22:50:43.118Z,35.20
2023-12-11T22:53:11.053Z,31.30
2023-12-11T22:55:38.669Z,31.90
2023-12-11T22:58:14.033Z,32.70
2023-12-11T23:00:44.483Z,32.90
2023-12-11T23:03:12.319Z,29.70
2023-12-11T23:05:40.808Z,30.50
2023-12-11T23:08:08.337Z,28.40
2023-12-11T23:10:36.012Z,27.50
2023-12-11T23:13:03.680Z,29.70
2023-12-11T23:15:32.992Z,28.70
2023-12-11T23:18:04.885Z,31.80
2023-12-11T23:20:32.644Z,30.50
2023-12-11T23:23:02.346Z,32.70
2023-12-11T23:25:29.900Z,27.50
2023-12-11T23:27:57.555Z,29.50
2023-12-11T23:30:25.108Z,29.90
2023-12-11T23:32:52.978Z,29.50
2023-12-11T23:35:20.749Z,31.20
2023-12-11T23:37:49.527Z,31.40
2023-12-11T23:40:17.221Z,33.50
2023-12-11T23:42:45.938Z,35.00
2023-12-11T23:45:13.489Z,31.40
2023-12-11T23:47:41.096Z,30.70
2023-12-11T23:50:09.670Z,30.90
2023-12-11T23:52:37.783Z,30.40
2023-12-11T23:55:05.811Z,31.10
2023-12-11T23:57:34.470Z,33.00
